createdAt,value
2018-12-12T00:01:23.992Z,43.7
2018-12-12T00:04:46.171Z,43.7
2018-12-12T00:08:08.349Z,43.7
2018-12-12T00:11:30.464Z,43.6
2018-12-12T00:14:52.702Z,43.7
2018-12-12T00:18:14.903Z,43.6
2018-12-12T00:21:37.046Z,43.6
2018-12-12T00:24:59.149Z,43.7
2018-12-12T00:28:21.314Z,43.7
2018-12-12T00:31:43.521Z,43.7
2018-12-12T00:35:05.761Z,43.6
2018-12-12T00:38:27.836Z,43.6
2018-12-12T00:41:50.003Z,43.6
2018-12-12T00:45:12.179Z,43.6
2018-12-12T00:48:34.363Z,43.6
2018-12-12T00:51:56.609Z,43.6
2018-12-12T00:55:18.743Z,43.6
2018-12-12T00:58:40.874Z,43.6
2018-12-12T01:02:03.056Z,43.6
2018-12-12T01:05:25.378Z,43.6
2018-12-12T01:08:47.467Z,43.6
2018-12-12T01:12:09.641Z,43.6
2018-12-12T01:15:31.823Z,43.6
2018-12-12T01:18:53.990Z,43.6
2018-12-12T01:22:16.196Z,43.5
2018-12-12T01:25:38.332Z,43.5
2018-12-12T01:29:00.435Z,43.5
2018-12-12T01:32:22.706Z,43.5
2018-12-12T01:35:44.875Z,43.5
2018-12-12T01:39:07.044Z,43.5
2018-12-12T01:42:29.228Z,43.5
2018-12-12T01:45:51.314Z,43.5
2018-12-12T01:49:13.571Z,43.5
2018-12-12T01:52:35.710Z,43.5
2018-12-12T01:55:57.910Z,43.5
2018-12-12T01:59:20.097Z,43.5
2018-12-12T02:02:42.281Z,43.5
2018-12-12T02:06:04.419Z,43.4
2018-12-12T02:09:26.581Z,43.4
2018-12-12T02:12:48.787Z,43.4
2018-12-12T02:16:10.936Z,43.4
2018-12-12T02:19:33.129Z,43.4
2018-12-12T02:22:55.312Z,43.4
2018-12-12T02:26:17.476Z,43.4
2018-12-12T02:29:39.602Z,43.4
2018-12-12T02:33:01.732Z,43.4
2018-12-12T02:36:24.000Z,43.4
2018-12-12T02:39:46.548Z,43.4
2018-12-12T02:43:08.339Z,43.3
2018-12-12T02:46:30.533Z,43.3
2018-12-12T02:49:52.691Z,43.3
2018-12-12T02:50:20.070Z,43.3
2018-12-12T02:53:14.861Z,43.3
2018-12-12T02:56:37.031Z,43.3
2018-12-12T02:59:59.120Z,43.3
2018-12-12T03:03:21.307Z,43.3
2018-12-12T03:06:43.545Z,43.3
2018-12-12T03:10:05.718Z,43.3
2018-12-12T03:13:27.898Z,43.3
2018-12-12T03:16:50.104Z,43.3
2018-12-12T03:20:12.250Z,43.3
2018-12-12T03:23:34.429Z,43.3
2018-12-12T03:26:56.518Z,43.3
2018-12-12T03:30:18.794Z,43.3
2018-12-12T03:33:40.936Z,43.3
2018-12-12T03:37:03.033Z,43.2
2018-12-12T03:40:25.392Z,43.2
2018-12-12T03:43:47.471Z,43.2
2018-12-12T03:47:09.554Z,43.2
2018-12-12T03:50:31.822Z,43.2
2018-12-12T03:53:53.926Z,43.2
2018-12-12T03:57:16.208Z,43.2
2018-12-12T04:00:38.332Z,43.2
2018-12-12T04:04:00.423Z,43.2
2018-12-12T04:07:22.667Z,43.2
2018-12-12T04:10:44.767Z,43.2
2018-12-12T04:14:07.010Z,43.2
2018-12-12T04:17:29.178Z,43.2
2018-12-12T04:20:51.351Z,43.2
2018-12-12T04:24:13.523Z,43.2
2018-12-12T04:27:35.627Z,43.2
2018-12-12T04:30:57.876Z,43.2
2018-12-12T04:34:19.993Z,43.1
2018-12-12T04:37:42.291Z,43.1
2018-12-12T04:41:04.416Z,43.1
2018-12-12T04:44:26.576Z,43.1
2018-12-12T04:47:50.322Z,43.1
2018-12-12T04:51:10.844Z,43.1
2018-12-12T04:54:33.012Z,43.1
2018-12-12T04:57:55.181Z,43.1
2018-12-12T05:01:17.359Z,43.1
2018-12-12T05:04:39.527Z,43.1
2018-12-12T05:08:01.712Z,43.1
2018-12-12T05:11:23.883Z,43.1
2018-12-12T05:14:46.129Z,43.1
2018-12-12T05:18:08.253Z,43.1
2018-12-12T05:21:30.414Z,43.1
2018-12-12T05:24:52.673Z,43.1
2018-12-12T05:28:15.598Z,43.1
2018-12-12T05:31:37.001Z,43.1
2018-12-12T05:34:59.122Z,43.1
2018-12-12T05:38:21.304Z,43.1
2018-12-12T05:41:43.470Z,43.1
2018-12-12T05:45:05.723Z,43
2018-12-12T05:48:27.873Z,43
2018-12-12T05:51:49.985Z,43
2018-12-12T05:55:12.216Z,43
2018-12-12T05:58:34.408Z,43
2018-12-12T06:01:56.622Z,43
2018-12-12T06:05:18.748Z,43
2018-12-12T06:08:40.841Z,43
2018-12-12T06:12:03.090Z,43
2018-12-12T06:15:25.271Z,43
2018-12-12T06:18:47.440Z,43
2018-12-12T06:22:09.612Z,43
2018-12-12T06:25:31.784Z,43.1
2018-12-12T06:28:53.967Z,43.1
2018-12-12T06:32:16.133Z,43.1
2018-12-12T06:35:38.229Z,43.1
2018-12-12T06:39:00.488Z,43.1
2018-12-12T06:42:22.685Z,43.1
2018-12-12T06:45:44.839Z,43.1
2018-12-12T06:49:07.017Z,43.2
2018-12-12T06:52:29.099Z,43.1
2018-12-12T06:55:51.341Z,43.2
2018-12-12T06:59:13.459Z,43.2
2018-12-12T07:02:35.702Z,43.2
2018-12-12T07:05:57.858Z,43.2
2018-12-12T07:09:20.036Z,43
2018-12-12T07:12:42.236Z,42
2018-12-12T07:16:05.182Z,41.5
2018-12-12T07:19:26.510Z,41.4
2018-12-12T07:22:48.756Z,41.3
2018-12-12T07:26:10.841Z,41.2
2018-12-12T07:29:33.068Z,41
2018-12-12T07:32:55.260Z,40.8
2018-12-12T07:36:17.344Z,40.7
2018-12-12T07:39:39.555Z,41.2
2018-12-12T07:43:01.823Z,40.8
2018-12-12T07:46:23.943Z,40.5
2018-12-12T07:49:46.041Z,40.5
2018-12-12T07:53:08.217Z,40.3
2018-12-12T07:56:30.521Z,40.3
2018-12-12T07:59:52.561Z,40.2
2018-12-12T08:03:14.901Z,40.1
2018-12-12T08:06:36.907Z,39.8
2018-12-12T08:09:59.159Z,39.9
2018-12-12T08:13:21.339Z,39.9
2018-12-12T08:16:43.500Z,39.7
2018-12-12T08:20:05.688Z,39.7
2018-12-12T08:26:50.024Z,43.5
2018-12-12T08:30:12.177Z,44.1
2018-12-12T08:33:34.531Z,43.6
2018-12-12T08:36:56.569Z,43.9
2018-12-12T08:40:18.734Z,43.8
2018-12-12T08:47:03.103Z,43.3
2018-12-12T08:50:25.291Z,43.1
2018-12-12T08:53:47.444Z,42.9
2018-12-12T08:57:09.550Z,42.5
2018-12-12T09:00:31.792Z,42.2
2018-12-12T09:03:53.974Z,41.9
2018-12-12T09:07:16.141Z,41.9
2018-12-12T09:10:38.237Z,41.6
2018-12-12T09:14:00.411Z,41.5
2018-12-12T09:17:22.713Z,41.1
2018-12-12T09:20:44.858Z,40.9
2018-12-12T09:24:06.950Z,40.6
2018-12-12T09:27:29.171Z,40.5
2018-12-12T09:30:51.688Z,40.4
2018-12-12T09:34:13.541Z,40.4
2018-12-12T09:37:35.688Z,40.2
2018-12-12T09:40:57.888Z,40.2
2018-12-12T09:44:20.147Z,40.1
2018-12-12T09:47:42.233Z,39.8
2018-12-12T09:51:04.404Z,39.9
2018-12-12T09:54:26.612Z,39.9
2018-12-12T09:57:48.813Z,39.5
2018-12-12T10:01:10.942Z,39.5
2018-12-12T10:04:33.233Z,39.5
2018-12-12T10:07:59.062Z,39.3
2018-12-12T10:11:17.445Z,39.2
2018-12-12T10:14:39.738Z,39.5
2018-12-12T10:18:01.941Z,39.5
2018-12-12T10:21:23.959Z,39.3
2018-12-12T10:24:46.234Z,39.8
2018-12-12T10:28:08.312Z,39.5
2018-12-12T10:31:30.503Z,39.4
2018-12-12T10:34:52.729Z,39.2
2018-12-12T10:38:14.918Z,39
2018-12-12T10:41:37.024Z,38.8
2018-12-12T10:44:59.354Z,38.8
2018-12-12T10:48:21.302Z,34
2018-12-12T10:51:43.486Z,33.9
2018-12-12T10:55:05.835Z,32.9
2018-12-12T10:58:29.432Z,33.6
2018-12-12T11:01:50.100Z,33.4
2018-12-12T11:05:12.256Z,33.5
2018-12-12T11:08:34.492Z,33.7
2018-12-12T11:11:56.551Z,34
2018-12-12T11:15:18.831Z,34.1
2018-12-12T11:18:40.886Z,34.4
2018-12-12T11:22:03.155Z,34.8
2018-12-12T11:25:25.307Z,35.3
2018-12-12T11:28:47.619Z,35.7
2018-12-12T11:32:09.604Z,36.1
2018-12-12T11:35:31.971Z,36.4
2018-12-12T11:38:53.959Z,36.6
2018-12-12T11:42:16.140Z,36.7
2018-12-12T11:45:38.373Z,36.8
2018-12-12T11:49:00.654Z,36.9
2018-12-12T11:52:22.667Z,37
2018-12-12T11:59:07.007Z,37.4
2018-12-12T12:02:29.202Z,37.6
2018-12-12T12:05:51.555Z,37.7
2018-12-12T12:09:13.638Z,37.8
2018-12-12T12:15:58.047Z,38
2018-12-12T12:19:20.154Z,38.1
2018-12-12T12:22:42.349Z,38.3
2018-12-12T12:26:04.466Z,38.6
2018-12-12T12:29:26.666Z,38.8
2018-12-12T12:32:48.957Z,39
2018-12-12T12:36:11.172Z,39.1
2018-12-12T12:39:33.115Z,39.1
2018-12-12T12:42:55.425Z,39
2018-12-12T12:46:17.567Z,30.9
2018-12-12T12:49:39.766Z,30.8
2018-12-12T12:53:05.118Z,33
2018-12-12T12:56:24.132Z,32.7
2018-12-12T12:59:46.306Z,32.8
2018-12-12T13:03:08.688Z,33.3
2018-12-12T13:06:30.590Z,33.5
2018-12-12T13:09:52.824Z,34.2
2018-12-12T13:13:14.983Z,34.4
2018-12-12T13:16:37.140Z,34.7
2018-12-12T13:19:59.342Z,34.8
2018-12-12T13:23:21.395Z,35.2
2018-12-12T13:26:43.677Z,35.6
2018-12-12T13:30:05.847Z,35.4
2018-12-12T13:30:45.415Z,35.4
2018-12-12T13:33:28.029Z,35.6
2018-12-12T13:36:50.170Z,35.9
2018-12-12T13:40:12.373Z,35.8
2018-12-12T13:43:34.454Z,35.9
2018-12-12T13:46:56.817Z,35.7
2018-12-12T13:50:18.890Z,36
2018-12-12T13:53:41.085Z,36
2018-12-12T13:57:03.247Z,36.1
2018-12-12T14:00:25.419Z,36.2
2018-12-12T14:03:47.637Z,36.1
2018-12-12T14:07:09.814Z,36.1
2018-12-12T14:10:31.981Z,36.2
2018-12-12T14:13:54.123Z,36
2018-12-12T14:17:16.273Z,36.1
2018-12-12T14:20:38.504Z,36
2018-12-12T14:24:00.644Z,36
2018-12-12T14:27:22.763Z,36.1
2018-12-12T14:30:44.926Z,36
2018-12-12T14:34:07.105Z,36.1
2018-12-12T14:37:29.387Z,36.2
2018-12-12T14:40:51.469Z,36.3
2018-12-12T14:44:13.631Z,36.4
2018-12-12T14:47:35.812Z,36.4
2018-12-12T14:50:57.995Z,36.4
2018-12-12T14:54:20.232Z,36.4
2018-12-12T14:57:42.388Z,36.5
2018-12-12T15:01:04.588Z,36.5
2018-12-12T15:04:26.779Z,36.7
2018-12-12T15:07:49.115Z,37.4
2018-12-12T15:11:11.102Z,37.4
2018-12-12T15:14:33.220Z,37.4
2018-12-12T15:21:17.632Z,37.4
2018-12-12T15:24:39.784Z,37.4
2018-12-12T15:28:05.221Z,37.5
2018-12-12T15:31:24.189Z,37.5
2018-12-12T15:34:46.361Z,37.7
2018-12-12T15:38:08.529Z,37.6
2018-12-12T15:41:30.756Z,37.5
2018-12-12T15:44:52.873Z,37.5
2018-12-12T15:48:15.159Z,37.5
2018-12-12T15:51:37.133Z,37.6
2018-12-12T15:54:59.339Z,37.7
2018-12-12T15:58:21.596Z,37.6
2018-12-12T16:01:43.748Z,37.5
2018-12-12T16:05:06.178Z,37.5
2018-12-12T16:08:28.105Z,37.5
2018-12-12T16:11:50.301Z,37.4
2018-12-12T16:15:12.391Z,37.3
2018-12-12T16:18:34.609Z,37.3
2018-12-12T16:21:56.769Z,37.3
2018-12-12T16:25:18.921Z,37.2
2018-12-12T16:28:41.270Z,37.1
2018-12-12T16:32:03.329Z,37.1
2018-12-12T16:35:25.519Z,37.1
2018-12-12T16:38:47.694Z,37.1
2018-12-12T16:42:09.862Z,37
2018-12-12T16:45:32.032Z,37
2018-12-12T16:48:54.222Z,36.8
2018-12-12T16:52:16.319Z,36.7
2018-12-12T16:55:38.506Z,36.7
2018-12-12T16:59:00.748Z,36.7
2018-12-12T17:02:22.834Z,36.7
2018-12-12T17:05:45.102Z,36.6
2018-12-12T17:09:07.265Z,36.6
2018-12-12T17:12:29.360Z,36.7
2018-12-12T17:15:51.527Z,36.9
2018-12-12T17:19:13.783Z,37.1
2018-12-12T17:22:35.909Z,36.9
2018-12-12T17:25:58.118Z,37.5
2018-12-12T17:29:20.253Z,37.8
2018-12-12T17:32:42.391Z,37.6
2018-12-12T17:36:04.678Z,37.5
2018-12-12T17:39:26.934Z,38
2018-12-12T17:42:48.916Z,37.5
2018-12-12T17:46:11.163Z,38.9
2018-12-12T17:49:33.376Z,40.6
2018-12-12T17:52:55.511Z,40.8
2018-12-12T17:56:17.608Z,41.9
2018-12-12T17:59:39.880Z,42.9
2018-12-12T18:03:02.117Z,43.7
2018-12-12T18:06:24.219Z,44.9
2018-12-12T18:09:46.372Z,45.3
2018-12-12T18:13:08.561Z,44.8
2018-12-12T18:16:30.660Z,44.7
2018-12-12T18:19:52.820Z,43.4
2018-12-12T18:23:17.204Z,41.3
2018-12-12T18:26:37.277Z,39.3
2018-12-12T18:29:59.421Z,38.7
2018-12-12T18:33:21.608Z,38.1
2018-12-12T18:36:43.705Z,38.1
2018-12-12T18:40:05.932Z,37.6
2018-12-12T18:43:28.122Z,37.6
2018-12-12T18:46:50.231Z,37.7
2018-12-12T18:46:50.720Z,37.7
2018-12-12T18:50:12.482Z,37.6
2018-12-12T18:53:34.568Z,38.1
2018-12-12T18:56:56.845Z,37.8
2018-12-12T19:00:18.999Z,37.7
2018-12-12T19:03:41.236Z,37.6
2018-12-12T19:07:03.273Z,37.4
2018-12-12T19:10:25.500Z,37.4
2018-12-12T19:13:49.975Z,37.5
2018-12-12T19:17:09.853Z,37.5
2018-12-12T19:20:32.052Z,37.3
2018-12-12T19:23:54.125Z,37.2
2018-12-12T19:27:16.368Z,37.2
2018-12-12T19:30:38.555Z,37
2018-12-12T19:34:00.724Z,37
2018-12-12T19:37:22.892Z,37
2018-12-12T19:40:45.121Z,37
2018-12-12T19:44:07.175Z,37
2018-12-12T19:47:29.348Z,37
2018-12-12T19:50:51.511Z,37
2018-12-12T19:54:13.761Z,37
2018-12-12T19:57:35.938Z,37
2018-12-12T20:00:58.111Z,37
2018-12-12T20:04:20.290Z,37
2018-12-12T20:07:42.416Z,37
2018-12-12T20:11:04.636Z,37
2018-12-12T20:14:26.952Z,37
2018-12-12T20:17:48.965Z,37
2018-12-12T20:21:11.153Z,37
2018-12-12T20:24:33.373Z,37
2018-12-12T20:27:55.498Z,37
2018-12-12T20:31:17.672Z,37
2018-12-12T20:34:39.844Z,37
2018-12-12T20:38:02.006Z,37.1
2018-12-12T20:41:24.187Z,37.1
2018-12-12T20:44:46.369Z,37.2
2018-12-12T20:48:08.564Z,37.3
2018-12-12T20:51:30.660Z,37.2
2018-12-12T20:54:52.881Z,37.3
2018-12-12T20:58:15.063Z,37.3
2018-12-12T21:01:37.259Z,37.3
2018-12-12T21:04:59.342Z,37.4
2018-12-12T21:08:21.592Z,37.4
2018-12-12T21:08:22.111Z,37.4
2018-12-12T21:11:43.754Z,37.4
2018-12-12T21:15:05.851Z,37.4
2018-12-12T21:18:28.128Z,37.4
2018-12-12T21:21:50.191Z,37.4
2018-12-12T21:25:12.463Z,37.3
2018-12-12T21:28:34.623Z,37.4
2018-12-12T21:31:56.829Z,37.4
2018-12-12T21:35:20.363Z,37.4
2018-12-12T21:38:41.153Z,37.4
2018-12-12T21:42:03.248Z,37.4
2018-12-12T21:45:25.484Z,37.4
2018-12-12T21:48:47.682Z,37.4
2018-12-12T21:52:09.874Z,37.5
2018-12-12T21:55:32.034Z,37.5
2018-12-12T21:58:54.141Z,37.6
2018-12-12T22:02:16.321Z,37.5
2018-12-12T22:05:38.542Z,37.6
2018-12-12T22:09:00.687Z,37.6
2018-12-12T22:12:22.884Z,37.5
2018-12-12T22:15:44.979Z,37.5
2018-12-12T22:19:07.223Z,37.6
2018-12-12T22:22:29.404Z,37.5
2018-12-12T22:25:51.500Z,37.5
2018-12-12T22:29:13.821Z,37.5
2018-12-12T22:32:36.022Z,37.7
2018-12-12T22:35:58.026Z,37.7
2018-12-12T22:39:20.281Z,37.6
2018-12-12T22:42:42.499Z,37.5
2018-12-12T22:46:04.647Z,37.4
2018-12-12T22:49:26.842Z,37.4
2018-12-12T22:52:49.004Z,37.3
2018-12-12T22:56:11.142Z,37.3
2018-12-12T22:59:33.295Z,37.3
2018-12-12T23:02:55.422Z,37.2
2018-12-12T23:06:17.645Z,37.1
2018-12-12T23:09:39.824Z,37.2
2018-12-12T23:13:02.000Z,37.2
2018-12-12T23:16:24.125Z,37.2
2018-12-12T23:19:46.360Z,37.2
2018-12-12T23:23:08.466Z,37.1
2018-12-12T23:26:30.726Z,37.1
2018-12-12T23:29:52.799Z,37.1
2018-12-12T23:33:15.068Z,37
2018-12-12T23:36:37.241Z,37
2018-12-12T23:39:59.319Z,37
2018-12-12T23:43:21.584Z,36.9
2018-12-12T23:46:43.760Z,36.9
2018-12-12T23:50:05.949Z,36.9
2018-12-12T23:53:28.104Z,36.9
2018-12-12T23:56:54.007Z,36.8
